sensor_id;sensor_type;location;lat;lon;timestamp;P1;durP1;ratioP1;P2;durP2;ratioP2
21890;SDS011;11110;52.386;16.940;2023-05-07T00:01:44;19.57;;;6.20;;
21890;SDS011;11110;52.386;16.940;2023-05-07T00:04:12;11.13;;;4.83;;
21890;SDS011;11110;52.386;16.940;2023-05-07T00:06:41;14.50;;;5.10;;
21890;SDS011;11110;52.386;16.940;2023-05-07T00:09:11;21.40;;;6.13;;
21890;SDS011;11110;52.386;16.940;2023-05-07T00:11:39;14.63;;;4.90;;
21890;SDS011;11110;52.386;16.940;2023-05-07T00:14:07;14.67;;;4.93;;
21890;SDS011;11110;52.386;16.940;2023-05-07T00:16:36;13.37;;;4.93;;
21890;SDS011;11110;52.386;16.940;2023-05-07T00:19:05;11.57;;;4.43;;
21890;SDS011;11110;52.386;16.940;2023-05-07T00:21:33;10.97;;;5.27;;
21890;SDS011;11110;52.386;16.940;2023-05-07T00:24:02;17.37;;;5.73;;
21890;SDS011;11110;52.386;16.940;2023-05-07T00:26:32;15.67;;;5.57;;
21890;SDS011;11110;52.386;16.940;2023-05-07T00:29:00;11.97;;;4.57;;
21890;SDS011;11110;52.386;16.940;2023-05-07T00:31:29;14.67;;;5.07;;
21890;SDS011;11110;52.386;16.940;2023-05-07T00:33:57;11.80;;;4.47;;
21890;SDS011;11110;52.386;16.940;2023-05-07T00:36:26;11.60;;;4.83;;
21890;SDS011;11110;52.386;16.940;2023-05-07T00:38:56;14.67;;;4.70;;
21890;SDS011;11110;52.386;16.940;2023-05-07T00:41:27;20.07;;;5.83;;
21890;SDS011;11110;52.386;16.940;2023-05-07T00:43:58;14.87;;;5.53;;
21890;SDS011;11110;52.386;16.940;2023-05-07T00:46:27;18.40;;;5.57;;
21890;SDS011;11110;52.386;16.940;2023-05-07T00:48:57;18.63;;;5.27;;
21890;SDS011;11110;52.386;16.940;2023-05-07T00:51:26;18.27;;;5.27;;
21890;SDS011;11110;52.386;16.940;2023-05-07T00:53:55;19.57;;;5.87;;
21890;SDS011;11110;52.386;16.940;2023-05-07T00:56:24;14.20;;;4.97;;
21890;SDS011;11110;52.386;16.940;2023-05-07T00:58:53;16.13;;;5.00;;
21890;SDS011;11110;52.386;16.940;2023-05-07T01:01:24;23.23;;;6.70;;
21890;SDS011;11110;52.386;16.940;2023-05-07T01:03:53;19.17;;;5.87;;
21890;SDS011;11110;52.386;16.940;2023-05-07T01:06:22;10.90;;;5.03;;
21890;SDS011;11110;52.386;16.940;2023-05-07T01:08:54;11.93;;;5.00;;
21890;SDS011;11110;52.386;16.940;2023-05-07T01:11:24;14.83;;;4.90;;
21890;SDS011;11110;52.386;16.940;2023-05-07T01:13:53;14.37;;;5.83;;
21890;SDS011;11110;52.386;16.940;2023-05-07T01:16:23;15.70;;;5.87;;
21890;SDS011;11110;52.386;16.940;2023-05-07T01:18:51;16.40;;;5.80;;
21890;SDS011;11110;52.386;16.940;2023-05-07T01:21:21;12.27;;;5.33;;
21890;SDS011;11110;52.386;16.940;2023-05-07T01:23:58;16.07;;;6.50;;
21890;SDS011;11110;52.386;16.940;2023-05-07T01:26:28;14.70;;;6.00;;
21890;SDS011;11110;52.386;16.940;2023-05-07T01:28:56;14.87;;;6.27;;
21890;SDS011;11110;52.386;16.940;2023-05-07T01:31:25;15.20;;;5.77;;
21890;SDS011;11110;52.386;16.940;2023-05-07T01:33:53;20.23;;;7.73;;
21890;SDS011;11110;52.386;16.940;2023-05-07T01:36:25;12.70;;;5.97;;
21890;SDS011;11110;52.386;16.940;2023-05-07T01:38:55;15.73;;;6.43;;
21890;SDS011;11110;52.386;16.940;2023-05-07T01:41:26;20.53;;;7.33;;
21890;SDS011;11110;52.386;16.940;2023-05-07T01:43:54;21.70;;;7.40;;
21890;SDS011;11110;52.386;16.940;2023-05-07T01:46:24;17.50;;;6.80;;
21890;SDS011;11110;52.386;16.940;2023-05-07T01:48:55;22.67;;;7.30;;
21890;SDS011;11110;52.386;16.940;2023-05-07T01:51:24;11.07;;;5.97;;
21890;SDS011;11110;52.386;16.940;2023-05-07T01:53:53;18.07;;;7.17;;
21890;SDS011;11110;52.386;16.940;2023-05-07T01:56:23;20.23;;;7.13;;
21890;SDS011;11110;52.386;16.940;2023-05-07T01:58:53;12.83;;;6.27;;
21890;SDS011;11110;52.386;16.940;2023-05-07T02:01:22;16.43;;;6.53;;
21890;SDS011;11110;52.386;16.940;2023-05-07T02:03:51;16.70;;;6.73;;
21890;SDS011;11110;52.386;16.940;2023-05-07T02:06:24;18.17;;;6.90;;
21890;SDS011;11110;52.386;16.940;2023-05-07T02:08:57;23.53;;;8.03;;
21890;SDS011;11110;52.386;16.940;2023-05-07T02:11:28;18.03;;;6.87;;
21890;SDS011;11110;52.386;16.940;2023-05-07T02:13:56;19.00;;;7.30;;
21890;SDS011;11110;52.386;16.940;2023-05-07T02:16:25;16.17;;;7.30;;
21890;SDS011;11110;52.386;16.940;2023-05-07T02:18:54;20.53;;;7.43;;
21890;SDS011;11110;52.386;16.940;2023-05-07T02:21:23;19.57;;;7.87;;
21890;SDS011;11110;52.386;16.940;2023-05-07T02:23:53;15.73;;;6.13;;
21890;SDS011;11110;52.386;16.940;2023-05-07T02:26:22;19.93;;;6.90;;
21890;SDS011;11110;52.386;16.940;2023-05-07T02:28:51;20.10;;;7.87;;
21890;SDS011;11110;52.386;16.940;2023-05-07T02:31:20;19.03;;;8.20;;
21890;SDS011;11110;52.386;16.940;2023-05-07T02:33:49;19.13;;;7.27;;
21890;SDS011;11110;52.386;16.940;2023-05-07T02:36:17;20.77;;;7.60;;
21890;SDS011;11110;52.386;16.940;2023-05-07T02:38:54;17.60;;;7.53;;
21890;SDS011;11110;52.386;16.940;2023-05-07T02:41:23;28.13;;;8.53;;
21890;SDS011;11110;52.386;16.940;2023-05-07T02:43:53;18.80;;;8.00;;
21890;SDS011;11110;52.386;16.940;2023-05-07T02:46:22;24.90;;;7.97;;
21890;SDS011;11110;52.386;16.940;2023-05-07T02:48:57;24.77;;;8.00;;
21890;SDS011;11110;52.386;16.940;2023-05-07T02:51:26;22.37;;;7.23;;
21890;SDS011;11110;52.386;16.940;2023-05-07T02:53:57;24.87;;;8.30;;
21890;SDS011;11110;52.386;16.940;2023-05-07T02:56:28;28.33;;;8.50;;
21890;SDS011;11110;52.386;16.940;2023-05-07T02:58:58;28.60;;;9.03;;
21890;SDS011;11110;52.386;16.940;2023-05-07T03:01:31;22.03;;;7.83;;
21890;SDS011;11110;52.386;16.940;2023-05-07T03:04:04;30.83;;;9.07;;
21890;SDS011;11110;52.386;16.940;2023-05-07T03:06:32;22.93;;;8.43;;
21890;SDS011;11110;52.386;16.940;2023-05-07T03:09:01;30.40;;;8.90;;
21890;SDS011;11110;52.386;16.940;2023-05-07T03:11:30;33.67;;;9.47;;
21890;SDS011;11110;52.386;16.940;2023-05-07T03:14:00;25.67;;;8.47;;
21890;SDS011;11110;52.386;16.940;2023-05-07T03:16:29;19.63;;;7.73;;
21890;SDS011;11110;52.386;16.940;2023-05-07T03:18:57;27.50;;;8.93;;
21890;SDS011;11110;52.386;16.940;2023-05-07T03:21:26;22.00;;;8.20;;
21890;SDS011;11110;52.386;16.940;2023-05-07T03:23:55;20.13;;;7.40;;
21890;SDS011;11110;52.386;16.940;2023-05-07T03:26:24;28.50;;;8.93;;
21890;SDS011;11110;52.386;16.940;2023-05-07T03:28:52;21.50;;;8.00;;
21890;SDS011;11110;52.386;16.940;2023-05-07T03:31:22;27.77;;;8.97;;
21890;SDS011;11110;52.386;16.940;2023-05-07T03:33:52;20.83;;;8.27;;
21890;SDS011;11110;52.386;16.940;2023-05-07T03:36:23;30.47;;;9.43;;
21890;SDS011;11110;52.386;16.940;2023-05-07T03:38:54;22.73;;;7.87;;
21890;SDS011;11110;52.386;16.940;2023-05-07T03:41:26;19.97;;;6.70;;
21890;SDS011;11110;52.386;16.940;2023-05-07T03:43:56;24.97;;;8.07;;
21890;SDS011;11110;52.386;16.940;2023-05-07T03:46:26;30.37;;;8.67;;
21890;SDS011;11110;52.386;16.940;2023-05-07T03:48:55;29.07;;;8.67;;
21890;SDS011;11110;52.386;16.940;2023-05-07T03:51:24;20.53;;;7.30;;
21890;SDS011;11110;52.386;16.940;2023-05-07T03:53:52;27.00;;;8.50;;
21890;SDS011;11110;52.386;16.940;2023-05-07T03:56:22;27.07;;;8.63;;
21890;SDS011;11110;52.386;16.940;2023-05-07T03:58:54;22.23;;;7.93;;
21890;SDS011;11110;52.386;16.940;2023-05-07T04:01:23;20.70;;;7.80;;
21890;SDS011;11110;52.386;16.940;2023-05-07T04:03:53;28.23;;;8.67;;
21890;SDS011;11110;52.386;16.940;2023-05-07T04:06:22;21.80;;;7.93;;
21890;SDS011;11110;52.386;16.940;2023-05-07T04:08:50;20.50;;;7.40;;
21890;SDS011;11110;52.386;16.940;2023-05-07T04:11:19;17.90;;;7.07;;
21890;SDS011;11110;52.386;16.940;2023-05-07T04:13:47;25.87;;;8.13;;
21890;SDS011;11110;52.386;16.940;2023-05-07T04:16:20;24.00;;;7.10;;
21890;SDS011;11110;52.386;16.940;2023-05-07T04:18:48;25.93;;;8.07;;
21890;SDS011;11110;52.386;16.940;2023-05-07T04:21:19;29.33;;;8.63;;
21890;SDS011;11110;52.386;16.940;2023-05-07T04:23:50;23.83;;;7.73;;
21890;SDS011;11110;52.386;16.940;2023-05-07T04:26:19;21.70;;;7.70;;
21890;SDS011;11110;52.386;16.940;2023-05-07T04:28:48;24.90;;;7.63;;
21890;SDS011;11110;52.386;16.940;2023-05-07T04:31:17;28.33;;;8.27;;
21890;SDS011;11110;52.386;16.940;2023-05-07T04:33:50;29.03;;;8.80;;
21890;SDS011;11110;52.386;16.940;2023-05-07T04:36:20;33.77;;;9.10;;
21890;SDS011;11110;52.386;16.940;2023-05-07T04:38:56;28.93;;;8.63;;
21890;SDS011;11110;52.386;16.940;2023-05-07T04:41:24;31.93;;;8.70;;
21890;SDS011;11110;52.386;16.940;2023-05-07T04:43:53;29.20;;;8.47;;
21890;SDS011;11110;52.386;16.940;2023-05-07T04:46:23;26.23;;;8.43;;
21890;SDS011;11110;52.386;16.940;2023-05-07T04:48:55;25.47;;;8.43;;
21890;SDS011;11110;52.386;16.940;2023-05-07T04:51:25;31.20;;;9.53;;
21890;SDS011;11110;52.386;16.940;2023-05-07T04:53:55;27.57;;;8.40;;
21890;SDS011;11110;52.386;16.940;2023-05-07T04:56:24;37.37;;;9.57;;
21890;SDS011;11110;52.386;16.940;2023-05-07T04:58:54;31.07;;;8.67;;
21890;SDS011;11110;52.386;16.940;2023-05-07T05:01:23;36.97;;;10.90;;
21890;SDS011;11110;52.386;16.940;2023-05-07T05:03:52;39.80;;;10.90;;
21890;SDS011;11110;52.386;16.940;2023-05-07T05:06:21;29.07;;;8.77;;
21890;SDS011;11110;52.386;16.940;2023-05-07T05:08:51;28.93;;;8.70;;
21890;SDS011;11110;52.386;16.940;2023-05-07T05:11:20;24.70;;;7.83;;
21890;SDS011;11110;52.386;16.940;2023-05-07T05:13:49;30.23;;;8.17;;
21890;SDS011;11110;52.386;16.940;2023-05-07T05:16:20;41.57;;;9.37;;
21890;SDS011;11110;52.386;16.940;2023-05-07T05:18:50;34.27;;;8.63;;
21890;SDS011;11110;52.386;16.940;2023-05-07T05:21:21;33.37;;;7.77;;
21890;SDS011;11110;52.386;16.940;2023-05-07T05:23:55;26.53;;;7.20;;
21890;SDS011;11110;52.386;16.940;2023-05-07T05:26:24;31.47;;;7.93;;
21890;SDS011;11110;52.386;16.940;2023-05-07T05:28:53;29.97;;;8.13;;
21890;SDS011;11110;52.386;16.940;2023-05-07T05:31:24;32.57;;;8.53;;
21890;SDS011;11110;52.386;16.940;2023-05-07T05:33:52;28.23;;;8.07;;
21890;SDS011;11110;52.386;16.940;2023-05-07T05:36:21;39.30;;;10.23;;
21890;SDS011;11110;52.386;16.940;2023-05-07T05:38:52;28.03;;;7.70;;
21890;SDS011;11110;52.386;16.940;2023-05-07T05:41:23;25.07;;;7.87;;
21890;SDS011;11110;52.386;16.940;2023-05-07T05:43:52;35.67;;;8.27;;
21890;SDS011;11110;52.386;16.940;2023-05-07T05:46:21;26.77;;;6.73;;
21890;SDS011;11110;52.386;16.940;2023-05-07T05:48:50;21.43;;;5.67;;
21890;SDS011;11110;52.386;16.940;2023-05-07T05:51:20;32.73;;;7.33;;
21890;SDS011;11110;52.386;16.940;2023-05-07T05:53:49;32.33;;;7.17;;
21890;SDS011;11110;52.386;16.940;2023-05-07T05:56:19;26.43;;;5.73;;
21890;SDS011;11110;52.386;16.940;2023-05-07T05:58:49;27.07;;;6.27;;
21890;SDS011;11110;52.386;16.940;2023-05-07T06:01:17;24.20;;;5.47;;
21890;SDS011;11110;52.386;16.940;2023-05-07T06:03:48;27.27;;;5.80;;
21890;SDS011;11110;52.386;16.940;2023-05-07T06:06:17;29.00;;;6.23;;
21890;SDS011;11110;52.386;16.940;2023-05-07T06:08:45;20.57;;;5.13;;
21890;SDS011;11110;52.386;16.940;2023-05-07T06:11:20;24.57;;;5.13;;
21890;SDS011;11110;52.386;16.940;2023-05-07T06:13:50;28.43;;;6.07;;
21890;SDS011;11110;52.386;16.940;2023-05-07T06:16:19;21.63;;;5.23;;
21890;SDS011;11110;52.386;16.940;2023-05-07T06:18:47;23.67;;;5.00;;
21890;SDS011;11110;52.386;16.940;2023-05-07T06:21:16;28.77;;;5.73;;
21890;SDS011;11110;52.386;16.940;2023-05-07T06:23:45;30.77;;;6.47;;
21890;SDS011;11110;52.386;16.940;2023-05-07T06:26:13;27.33;;;6.17;;
21890;SDS011;11110;52.386;16.940;2023-05-07T06:28:45;31.47;;;7.03;;
21890;SDS011;11110;52.386;16.940;2023-05-07T06:31:17;26.80;;;6.33;;
21890;SDS011;11110;52.386;16.940;2023-05-07T06:33:59;31.50;;;6.87;;
21890;SDS011;11110;52.386;16.940;2023-05-07T06:36:34;27.77;;;6.50;;
21890;SDS011;11110;52.386;16.940;2023-05-07T06:39:21;31.00;;;6.87;;
21890;SDS011;11110;52.386;16.940;2023-05-07T06:41:51;26.77;;;6.20;;
21890;SDS011;11110;52.386;16.940;2023-05-07T06:44:27;34.67;;;6.97;;
21890;SDS011;11110;52.386;16.940;2023-05-07T06:47:06;26.90;;;6.77;;
21890;SDS011;11110;52.386;16.940;2023-05-07T06:49:37;36.77;;;9.20;;
21890;SDS011;11110;52.386;16.940;2023-05-07T06:52:06;29.60;;;7.60;;
21890;SDS011;11110;52.386;16.940;2023-05-07T06:54:35;40.23;;;9.53;;
21890;SDS011;11110;52.386;16.940;2023-05-07T06:57:04;33.37;;;7.47;;
21890;SDS011;11110;52.386;16.940;2023-05-07T06:59:32;31.97;;;7.23;;
21890;SDS011;11110;52.386;16.940;2023-05-07T07:02:01;37.30;;;7.33;;
21890;SDS011;11110;52.386;16.940;2023-05-07T07:04:30;17.27;;;5.63;;
21890;SDS011;11110;52.386;16.940;2023-05-07T07:07:04;31.50;;;6.07;;
21890;SDS011;11110;52.386;16.940;2023-05-07T07:09:32;26.13;;;5.43;;
21890;SDS011;11110;52.386;16.940;2023-05-07T07:12:03;33.90;;;6.27;;
21890;SDS011;11110;52.386;16.940;2023-05-07T07:14:33;23.43;;;5.10;;
21890;SDS011;11110;52.386;16.940;2023-05-07T07:17:02;36.43;;;6.27;;
21890;SDS011;11110;52.386;16.940;2023-05-07T07:19:33;25.80;;;4.83;;
21890;SDS011;11110;52.386;16.940;2023-05-07T07:22:03;28.07;;;5.73;;
21890;SDS011;11110;52.386;16.940;2023-05-07T07:24:32;28.80;;;6.27;;
21890;SDS011;11110;52.386;16.940;2023-05-07T07:27:04;31.87;;;6.30;;
21890;SDS011;11110;52.386;16.940;2023-05-07T07:29:33;38.27;;;6.87;;
21890;SDS011;11110;52.386;16.940;2023-05-07T07:32:03;31.23;;;9.13;;
21890;SDS011;11110;52.386;16.940;2023-05-07T07:34:33;27.53;;;6.37;;
21890;SDS011;11110;52.386;16.940;2023-05-07T07:37:02;23.63;;;5.37;;
21890;SDS011;11110;52.386;16.940;2023-05-07T07:39:33;24.67;;;4.93;;
21890;SDS011;11110;52.386;16.940;2023-05-07T07:42:05;31.20;;;7.10;;
21890;SDS011;11110;52.386;16.940;2023-05-07T07:44:34;21.10;;;4.50;;
21890;SDS011;11110;52.386;16.940;2023-05-07T07:47:07;38.17;;;6.93;;
21890;SDS011;11110;52.386;16.940;2023-05-07T07:49:38;25.57;;;4.67;;
21890;SDS011;11110;52.386;16.940;2023-05-07T07:52:08;32.87;;;5.87;;
21890;SDS011;11110;52.386;16.940;2023-05-07T07:54:37;27.83;;;5.10;;
21890;SDS011;11110;52.386;16.940;2023-05-07T07:57:07;22.53;;;4.20;;
21890;SDS011;11110;52.386;16.940;2023-05-07T07:59:36;21.13;;;4.57;;
21890;SDS011;11110;52.386;16.940;2023-05-07T08:02:05;35.43;;;6.37;;
21890;SDS011;11110;52.386;16.940;2023-05-07T08:04:34;24.47;;;4.47;;
21890;SDS011;11110;52.386;16.940;2023-05-07T08:07:07;27.47;;;4.60;;
21890;SDS011;11110;52.386;16.940;2023-05-07T08:09:39;24.20;;;4.30;;
21890;SDS011;11110;52.386;16.940;2023-05-07T08:12:10;27.07;;;4.77;;
21890;SDS011;11110;52.386;16.940;2023-05-07T08:14:38;16.38;;;3.47;;
21890;SDS011;11110;52.386;16.940;2023-05-07T08:17:08;26.87;;;5.17;;
21890;SDS011;11110;52.386;16.940;2023-05-07T08:19:37;18.73;;;3.95;;
21890;SDS011;11110;52.386;16.940;2023-05-07T08:22:09;18.23;;;3.38;;
21890;SDS011;11110;52.386;16.940;2023-05-07T08:24:38;19.02;;;3.50;;
21890;SDS011;11110;52.386;16.940;2023-05-07T08:27:07;24.02;;;4.75;;
21890;SDS011;11110;52.386;16.940;2023-05-07T08:29:36;21.48;;;3.90;;
21890;SDS011;11110;52.386;16.940;2023-05-07T08:32:04;36.72;;;5.53;;
21890;SDS011;11110;52.386;16.940;2023-05-07T08:34:33;12.43;;;3.20;;
21890;SDS011;11110;52.386;16.940;2023-05-07T08:37:04;22.00;;;4.13;;
21890;SDS011;11110;52.386;16.940;2023-05-07T08:39:34;24.98;;;4.85;;
21890;SDS011;11110;52.386;16.940;2023-05-07T08:42:07;22.45;;;4.07;;
21890;SDS011;11110;52.386;16.940;2023-05-07T08:44:39;19.50;;;3.75;;
21890;SDS011;11110;52.386;16.940;2023-05-07T08:47:08;17.70;;;3.42;;
21890;SDS011;11110;52.386;16.940;2023-05-07T08:49:38;21.25;;;3.97;;
21890;SDS011;11110;52.386;16.940;2023-05-07T08:52:07;21.15;;;4.18;;
21890;SDS011;11110;52.386;16.940;2023-05-07T08:54:38;32.72;;;5.82;;
21890;SDS011;11110;52.386;16.940;2023-05-07T08:57:09;31.98;;;5.40;;
21890;SDS011;11110;52.386;16.940;2023-05-07T08:59:38;14.13;;;3.53;;
21890;SDS011;11110;52.386;16.940;2023-05-07T09:02:09;15.27;;;3.05;;
21890;SDS011;11110;52.386;16.940;2023-05-07T09:04:39;14.85;;;3.90;;
21890;SDS011;11110;52.386;16.940;2023-05-07T09:07:08;29.92;;;5.25;;
21890;SDS011;11110;52.386;16.940;2023-05-07T09:09:43;17.42;;;3.65;;
21890;SDS011;11110;52.386;16.940;2023-05-07T09:12:13;20.95;;;4.22;;
21890;SDS011;11110;52.386;16.940;2023-05-07T09:14:42;17.25;;;3.63;;
21890;SDS011;11110;52.386;16.940;2023-05-07T09:17:10;16.92;;;3.60;;
21890;SDS011;11110;52.386;16.940;2023-05-07T09:19:39;34.00;;;6.10;;
21890;SDS011;11110;52.386;16.940;2023-05-07T09:22:08;22.58;;;4.25;;
21890;SDS011;11110;52.386;16.940;2023-05-07T09:24:48;27.83;;;5.38;;
21890;SDS011;11110;52.386;16.940;2023-05-07T09:27:20;26.63;;;4.82;;
21890;SDS011;11110;52.386;16.940;2023-05-07T09:29:49;24.70;;;4.65;;
21890;SDS011;11110;52.386;16.940;2023-05-07T09:32:18;18.55;;;3.75;;
21890;SDS011;11110;52.386;16.940;2023-05-07T09:34:47;20.27;;;4.28;;
21890;SDS011;11110;52.386;16.940;2023-05-07T09:37:18;33.30;;;5.65;;
21890;SDS011;11110;52.386;16.940;2023-05-07T09:39:48;26.08;;;5.20;;
21890;SDS011;11110;52.386;16.940;2023-05-07T09:42:24;20.85;;;3.90;;
21890;SDS011;11110;52.386;16.940;2023-05-07T09:44:56;16.52;;;3.40;;
21890;SDS011;11110;52.386;16.940;2023-05-07T09:47:33;29.15;;;5.15;;
21890;SDS011;11110;52.386;16.940;2023-05-07T09:50:07;20.40;;;4.07;;
21890;SDS011;11110;52.386;16.940;2023-05-07T09:52:39;26.60;;;4.97;;
21890;SDS011;11110;52.386;16.940;2023-05-07T09:55:11;25.85;;;5.03;;
21890;SDS011;11110;52.386;16.940;2023-05-07T09:57:41;29.85;;;5.40;;
21890;SDS011;11110;52.386;16.940;2023-05-07T10:00:12;27.23;;;4.93;;
21890;SDS011;11110;52.386;16.940;2023-05-07T10:02:48;24.30;;;4.38;;
21890;SDS011;11110;52.386;16.940;2023-05-07T10:05:26;26.52;;;4.38;;
21890;SDS011;11110;52.386;16.940;2023-05-07T10:07:58;33.83;;;5.75;;
21890;SDS011;11110;52.386;16.940;2023-05-07T10:10:33;28.25;;;5.13;;
21890;SDS011;11110;52.386;16.940;2023-05-07T10:13:05;28.63;;;5.00;;
21890;SDS011;11110;52.386;16.940;2023-05-07T10:15:40;18.38;;;3.70;;
21890;SDS011;11110;52.386;16.940;2023-05-07T10:18:10;20.92;;;4.20;;
21890;SDS011;11110;52.386;16.940;2023-05-07T10:20:43;19.35;;;3.95;;
21890;SDS011;11110;52.386;16.940;2023-05-07T10:23:16;19.20;;;3.92;;
21890;SDS011;11110;52.386;16.940;2023-05-07T10:25:51;16.20;;;3.55;;
21890;SDS011;11110;52.386;16.940;2023-05-07T10:28:29;14.88;;;3.47;;
21890;SDS011;11110;52.386;16.940;2023-05-07T10:31:07;19.95;;;3.97;;
21890;SDS011;11110;52.386;16.940;2023-05-07T10:33:46;18.63;;;3.78;;
21890;SDS011;11110;52.386;16.940;2023-05-07T10:36:17;26.30;;;4.68;;
21890;SDS011;11110;52.386;16.940;2023-05-07T10:38:48;22.38;;;4.43;;
21890;SDS011;11110;52.386;16.940;2023-05-07T10:41:18;16.10;;;3.45;;
21890;SDS011;11110;52.386;16.940;2023-05-07T10:43:49;24.67;;;4.53;;
21890;SDS011;11110;52.386;16.940;2023-05-07T10:46:27;17.70;;;3.65;;
21890;SDS011;11110;52.386;16.940;2023-05-07T10:49:06;23.50;;;4.47;;
21890;SDS011;11110;52.386;16.940;2023-05-07T10:51:41;18.77;;;3.83;;
21890;SDS011;11110;52.386;16.940;2023-05-07T10:54:20;26.13;;;4.93;;
21890;SDS011;11110;52.386;16.940;2023-05-07T11:03:21;18.27;;;3.33;;
21890;SDS011;11110;52.386;16.940;2023-05-07T11:06:08;14.18;;;3.40;;
21890;SDS011;11110;52.386;16.940;2023-05-07T11:08:55;18.08;;;3.83;;
21890;SDS011;11110;52.386;16.940;2023-05-07T11:11:52;14.02;;;3.08;;
21890;SDS011;11110;52.386;16.940;2023-05-07T11:14:44;18.15;;;3.83;;
21890;SDS011;11110;52.386;16.940;2023-05-07T11:17:22;21.92;;;3.90;;
21890;SDS011;11110;52.386;16.940;2023-05-07T11:19:58;19.73;;;3.88;;
21890;SDS011;11110;52.386;16.940;2023-05-07T11:22:49;16.15;;;3.30;;
21890;SDS011;11110;52.386;16.940;2023-05-07T11:25:36;19.50;;;3.72;;
21890;SDS011;11110;52.386;16.940;2023-05-07T11:28:14;21.48;;;4.03;;
21890;SDS011;11110;52.386;16.940;2023-05-07T11:30:55;12.88;;;3.20;;
21890;SDS011;11110;52.386;16.940;2023-05-07T11:33:26;17.60;;;3.17;;
21890;SDS011;11110;52.386;16.940;2023-05-07T11:35:56;19.33;;;3.42;;
21890;SDS011;11110;52.386;16.940;2023-05-07T11:38:34;22.35;;;4.22;;
21890;SDS011;11110;52.386;16.940;2023-05-07T11:41:03;17.40;;;3.42;;
21890;SDS011;11110;52.386;16.940;2023-05-07T11:43:32;27.02;;;4.55;;
21890;SDS011;11110;52.386;16.940;2023-05-07T11:46:05;21.70;;;4.18;;
21890;SDS011;11110;52.386;16.940;2023-05-07T11:48:37;20.08;;;3.72;;
21890;SDS011;11110;52.386;16.940;2023-05-07T11:51:06;20.30;;;4.03;;
21890;SDS011;11110;52.386;16.940;2023-05-07T11:53:36;29.42;;;5.00;;
21890;SDS011;11110;52.386;16.940;2023-05-07T11:56:08;18.52;;;3.72;;
21890;SDS011;11110;52.386;16.940;2023-05-07T11:58:38;14.57;;;3.08;;
21890;SDS011;11110;52.386;16.940;2023-05-07T12:01:07;22.65;;;4.45;;
21890;SDS011;11110;52.386;16.940;2023-05-07T12:03:39;28.27;;;5.07;;
21890;SDS011;11110;52.386;16.940;2023-05-07T12:06:10;16.13;;;3.13;;
21890;SDS011;11110;52.386;16.940;2023-05-07T12:08:40;19.00;;;3.63;;
21890;SDS011;11110;52.386;16.940;2023-05-07T12:11:13;24.30;;;4.63;;
21890;SDS011;11110;52.386;16.940;2023-05-07T12:13:44;21.70;;;4.07;;
21890;SDS011;11110;52.386;16.940;2023-05-07T12:16:12;21.83;;;4.22;;
21890;SDS011;11110;52.386;16.940;2023-05-07T12:18:43;18.85;;;3.83;;
21890;SDS011;11110;52.386;16.940;2023-05-07T12:21:12;17.38;;;3.42;;
21890;SDS011;11110;52.386;16.940;2023-05-07T12:23:41;14.82;;;3.10;;
21890;SDS011;11110;52.386;16.940;2023-05-07T12:26:10;17.75;;;3.80;;
21890;SDS011;11110;52.386;16.940;2023-05-07T12:28:39;22.23;;;4.53;;
21890;SDS011;11110;52.386;16.940;2023-05-07T12:31:07;17.60;;;3.80;;
21890;SDS011;11110;52.386;16.940;2023-05-07T12:33:37;15.25;;;3.60;;
21890;SDS011;11110;52.386;16.940;2023-05-07T12:36:11;18.70;;;4.13;;
21890;SDS011;11110;52.386;16.940;2023-05-07T12:38:40;21.20;;;4.25;;
21890;SDS011;11110;52.386;16.940;2023-05-07T12:41:09;10.82;;;2.67;;
21890;SDS011;11110;52.386;16.940;2023-05-07T12:43:39;17.30;;;3.72;;
21890;SDS011;11110;52.386;16.940;2023-05-07T12:46:07;17.30;;;3.70;;
21890;SDS011;11110;52.386;16.940;2023-05-07T12:48:37;13.40;;;3.35;;
21890;SDS011;11110;52.386;16.940;2023-05-07T12:51:13;17.90;;;3.65;;
21890;SDS011;11110;52.386;16.940;2023-05-07T12:53:42;11.93;;;3.03;;
21890;SDS011;11110;52.386;16.940;2023-05-07T12:56:11;24.20;;;4.70;;
21890;SDS011;11110;52.386;16.940;2023-05-07T12:58:40;17.67;;;3.65;;
21890;SDS011;11110;52.386;16.940;2023-05-07T13:01:08;14.65;;;3.47;;
21890;SDS011;11110;52.386;16.940;2023-05-07T13:03:42;15.60;;;3.50;;
21890;SDS011;11110;52.386;16.940;2023-05-07T13:06:18;19.73;;;4.18;;
21890;SDS011;11110;52.386;16.940;2023-05-07T13:08:47;17.65;;;3.80;;
21890;SDS011;11110;52.386;16.940;2023-05-07T13:11:15;20.48;;;4.38;;
21890;SDS011;11110;52.386;16.940;2023-05-07T13:13:44;19.67;;;4.05;;
21890;SDS011;11110;52.386;16.940;2023-05-07T13:16:12;26.00;;;4.80;;
21890;SDS011;11110;52.386;16.940;2023-05-07T13:18:40;16.13;;;3.45;;
21890;SDS011;11110;52.386;16.940;2023-05-07T13:21:10;14.25;;;3.45;;
21890;SDS011;11110;52.386;16.940;2023-05-07T13:23:42;11.88;;;3.05;;
21890;SDS011;11110;52.386;16.940;2023-05-07T13:26:10;17.52;;;4.10;;
21890;SDS011;11110;52.386;16.940;2023-05-07T13:28:52;14.88;;;3.28;;
21890;SDS011;11110;52.386;16.940;2023-05-07T13:31:21;25.30;;;4.72;;
21890;SDS011;11110;52.386;16.940;2023-05-07T13:33:50;23.65;;;4.85;;
21890;SDS011;11110;52.386;16.940;2023-05-07T13:36:19;22.45;;;4.35;;
21890;SDS011;11110;52.386;16.940;2023-05-07T13:38:49;22.35;;;4.60;;
21890;SDS011;11110;52.386;16.940;2023-05-07T13:41:19;23.88;;;4.68;;
21890;SDS011;11110;52.386;16.940;2023-05-07T13:43:47;21.08;;;4.35;;
21890;SDS011;11110;52.386;16.940;2023-05-07T13:46:16;16.20;;;3.70;;
21890;SDS011;11110;52.386;16.940;2023-05-07T13:48:45;15.85;;;3.97;;
21890;SDS011;11110;52.386;16.940;2023-05-07T13:51:13;16.42;;;4.03;;
21890;SDS011;11110;52.386;16.940;2023-05-07T13:53:42;20.00;;;4.57;;
21890;SDS011;11110;52.386;16.940;2023-05-07T13:56:12;14.82;;;3.47;;
21890;SDS011;11110;52.386;16.940;2023-05-07T13:58:41;19.08;;;4.32;;
21890;SDS011;11110;52.386;16.940;2023-05-07T14:01:25;15.00;;;3.92;;
21890;SDS011;11110;52.386;16.940;2023-05-07T14:03:55;16.13;;;3.67;;
21890;SDS011;11110;52.386;16.940;2023-05-07T14:06:24;15.02;;;4.32;;
21890;SDS011;11110;52.386;16.940;2023-05-07T14:08:53;16.17;;;3.90;;
21890;SDS011;11110;52.386;16.940;2023-05-07T14:11:23;14.65;;;3.63;;
21890;SDS011;11110;52.386;16.940;2023-05-07T14:13:51;14.30;;;3.35;;
21890;SDS011;11110;52.386;16.940;2023-05-07T14:16:20;14.88;;;3.45;;
21890;SDS011;11110;52.386;16.940;2023-05-07T14:18:48;13.73;;;3.55;;
21890;SDS011;11110;52.386;16.940;2023-05-07T14:21:17;24.83;;;4.88;;
21890;SDS011;11110;52.386;16.940;2023-05-07T14:23:46;15.18;;;3.40;;
21890;SDS011;11110;52.386;16.940;2023-05-07T14:26:14;11.70;;;3.00;;
21890;SDS011;11110;52.386;16.940;2023-05-07T14:28:44;17.80;;;3.95;;
21890;SDS011;11110;52.386;16.940;2023-05-07T14:31:13;13.23;;;2.95;;
21890;SDS011;11110;52.386;16.940;2023-05-07T14:33:42;14.30;;;3.38;;
21890;SDS011;11110;52.386;16.940;2023-05-07T14:36:10;15.02;;;3.60;;
21890;SDS011;11110;52.386;16.940;2023-05-07T14:38:39;11.48;;;3.30;;
21890;SDS011;11110;52.386;16.940;2023-05-07T14:41:07;15.88;;;3.55;;
21890;SDS011;11110;52.386;16.940;2023-05-07T14:43:35;14.13;;;3.60;;
21890;SDS011;11110;52.386;16.940;2023-05-07T14:46:05;14.13;;;3.42;;
21890;SDS011;11110;52.386;16.940;2023-05-07T14:48:34;14.05;;;3.50;;